Time;durP1;ratioP1;P1;durP2;ratioP2;P2;SDS_P1;SDS_P2;PMS_P1;PMS_P2;Temp;Humidity;BMP_temperature;BMP_pressure;BME280_temperature;BME280_humidity;BME280_pressure;Samples;Min_cycle;Max_cycle;Signal;HPM_P1;HPM_P2
2022/04/07 00:00:46;;;;;;;0.60;0.60;;;;;;;11.10;74.91;94089.91;4363075;32;20291;-58
2022/04/07 00:03:11;;;;;;;0.87;0.87;;;;;;;11.16;74.66;94088.59;4359692;32;20198;-57
2022/04/07 00:05:37;;;;;;;1.73;0.90;;;;;;;11.19;74.39;94093.25;4349494;32;20197;-57
2022/04/07 00:08:02;;;;;;;0.80;0.80;;;;;;;11.10;75.01;94092.56;4359857;32;20204;-56
2022/04/07 00:10:28;;;;;;;0.90;0.90;;;;;;;11.16;74.70;94094.69;4350997;32;20207;-56
2022/04/07 00:12:53;;;;;;;0.63;0.63;;;;;;;11.14;74.91;94094.25;4360625;32;20172;-58
2022/04/07 00:15:18;;;;;;;0.73;0.70;;;;;;;11.09;75.19;94094.44;4360460;32;20189;-57
2022/04/07 00:17:44;;;;;;;0.80;0.80;;;;;;;11.11;74.87;94086.16;4367674;32;20251;-57
2022/04/07 00:20:10;;;;;;;0.93;0.70;;;;;;;11.10;74.98;94095.22;4360214;32;20215;-57
2022/04/07 00:22:35;;;;;;;0.57;0.57;;;;;;;11.12;74.99;94090.34;4356187;32;20201;-57
2022/04/07 00:25:02;;;;;;;0.67;0.60;;;;;;;11.05;75.24;94084.78;4357209;32;20189;-56
2022/04/07 00:27:27;;;;;;;0.50;0.50;;;;;;;11.01;75.03;94080.13;4365508;32;20252;-58
2022/04/07 00:29:53;;;;;;;0.53;0.53;;;;;;;11.05;75.04;94084.78;4347233;32;20193;-56
2022/04/07 00:32:18;;;;;;;0.60;0.60;;;;;;;10.85;75.43;94095.09;4369827;32;20208;-56
2022/04/07 00:34:46;;;;;;;0.50;0.50;;;;;;;11.00;75.24;94083.12;4359979;32;20193;-55
2022/04/07 00:37:11;;;;;;;0.60;0.60;;;;;;;10.90;75.27;94084.31;4365394;32;20192;-55
2022/04/07 00:39:37;;;;;;;0.50;0.50;;;;;;;10.74;75.40;94082.56;4349978;32;20214;-55
2022/04/07 00:42:03;;;;;;;0.80;0.80;;;;;;;10.73;75.60;94081.78;4367471;32;20230;-56
2022/04/07 00:44:28;;;;;;;0.60;0.60;;;;;;;10.64;75.83;94076.53;4365103;32;20193;-58
2022/04/07 00:46:54;;;;;;;1.13;0.63;;;;;;;10.72;75.91;94080.25;4366550;32;20258;-54
2022/04/07 00:49:19;;;;;;;0.70;0.70;;;;;;;10.79;75.37;94077.06;4348924;32;20215;-57
2022/04/07 00:51:45;;;;;;;0.80;0.80;;;;;;;10.75;75.47;94070.87;4357675;32;20184;-57
2022/04/07 00:54:12;;;;;;;0.57;0.57;;;;;;;10.72;75.60;94066.97;4353116;32;20193;-56
2022/04/07 00:56:41;;;;;;;0.77;0.77;;;;;;;10.77;75.26;94073.97;4364736;32;20185;-55
2022/04/07 00:59:07;;;;;;;0.60;0.60;;;;;;;10.64;75.76;94070.47;4374348;32;20192;-54
2022/04/07 01:01:33;;;;;;;0.60;0.60;;;;;;;10.63;76.24;94071.56;4361252;32;20294;-55
2022/04/07 01:03:59;;;;;;;0.60;0.60;;;;;;;10.60;76.14;94070.34;4355885;32;20311;-55
2022/04/07 01:06:24;;;;;;;1.50;0.73;;;;;;;10.64;76.06;94055.34;4348932;32;20196;-57
2022/04/07 01:08:50;;;;;;;0.70;0.70;;;;;;;10.65;75.90;94064.84;4352346;32;20192;-55
2022/04/07 01:11:15;;;;;;;0.70;0.70;;;;;;;10.80;75.64;94057.41;4346207;32;20203;-56
2022/04/07 01:13:46;;;;;;;0.60;0.60;;;;;;;10.77;75.39;94050.09;4361243;32;20189;-57
2022/04/07 01:16:12;;;;;;;0.60;0.60;;;;;;;10.56;76.29;94050.88;4358410;32;20231;-55
2022/04/07 01:18:38;;;;;;;0.40;0.40;;;;;;;10.70;76.11;94055.91;4350124;32;20193;-57
2022/04/07 01:21:04;;;;;;;0.70;0.70;;;;;;;10.75;75.85;94053.06;4338813;32;20289;-56
2022/04/07 01:23:34;;;;;;;1.03;1.00;;;;;;;10.59;76.13;94046.81;4371974;32;20207;-56
2022/04/07 01:26:00;;;;;;;0.73;0.73;;;;;;;10.55;76.51;94040.59;4334677;32;20254;-55
2022/04/07 01:28:25;;;;;;;0.80;0.80;;;;;;;10.49;77.12;94047.97;4354581;32;20205;-56
2022/04/07 01:30:50;;;;;;;0.73;0.70;;;;;;;10.67;76.56;94048.59;4361630;32;20216;-57
2022/04/07 01:33:17;;;;;;;0.80;0.80;;;;;;;10.67;76.51;94038.00;4359014;32;20185;-57
2022/04/07 01:35:43;;;;;;;0.80;0.73;;;;;;;10.67;76.46;94038.00;4353305;32;20185;-56
2022/04/07 01:38:08;;;;;;;0.60;0.60;;;;;;;10.63;76.70;94032.56;4368499;32;20277;-56
2022/04/07 01:40:35;;;;;;;0.70;0.70;;;;;;;10.47;77.42;94028.94;4361686;32;20284;-56
2022/04/07 01:43:05;;;;;;;0.63;0.63;;;;;;;10.61;77.03;94023.38;4369975;32;20188;-56
2022/04/07 01:45:33;;;;;;;1.37;0.80;;;;;;;10.50;77.35;94027.53;4361443;32;20288;-56
2022/04/07 01:47:59;;;;;;;0.97;0.60;;;;;;;10.58;77.29;94029.34;4346386;32;20286;-56
2022/04/07 01:50:26;;;;;;;0.67;0.67;;;;;;;10.59;76.98;94029.03;4348930;32;20289;-54
2022/04/07 01:52:51;;;;;;;0.50;0.50;;;;;;;10.63;76.96;94031.78;4360078;32;20293;-55
2022/04/07 01:55:17;;;;;;;0.60;0.60;;;;;;;10.84;76.36;94024.56;4373053;32;20339;-56
2022/04/07 01:57:44;;;;;;;0.60;0.60;;;;;;;10.85;75.86;94028.78;4364349;32;20234;-56
2022/04/07 02:00:10;;;;;;;0.73;0.73;;;;;;;10.85;76.22;94026.13;4362807;32;20341;-56
2022/04/07 02:02:36;;;;;;;0.60;0.60;;;;;;;10.76;76.57;94029.97;4361777;32;20293;-54
2022/04/07 02:05:08;;;;;;;0.53;0.53;;;;;;;10.82;76.29;94032.09;4360867;32;20205;-56
2022/04/07 02:07:34;;;;;;;0.57;0.57;;;;;;;10.86;76.30;94025.03;4373472;32;20185;-55
2022/04/07 02:10:00;;;;;;;0.50;0.50;;;;;;;10.90;75.90;94025.94;4371844;32;20185;-55
2022/04/07 02:12:27;;;;;;;0.60;0.60;;;;;;;10.84;76.32;94037.84;4366533;32;20238;-54
2022/04/07 02:14:53;;;;;;;0.80;0.80;;;;;;;10.79;76.11;94030.09;4377971;32;20229;-54
2022/04/07 02:17:20;;;;;;;1.27;0.90;;;;;;;10.87;76.28;94036.41;4373797;32;20181;-53
2022/04/07 02:19:50;;;;;;;0.63;0.63;;;;;;;10.73;76.87;94042.00;4368309;32;20185;-55
2022/04/07 02:22:21;;;;;;;0.60;0.60;;;;;;;10.80;76.89;94031.66;4373599;32;20273;-54
2022/04/07 02:24:47;;;;;;;0.70;0.60;;;;;;;10.79;76.83;94027.44;4367411;32;20206;-56
2022/04/07 02:27:14;;;;;;;0.70;0.70;;;;;;;10.84;76.80;94024.56;4353754;32;20200;-56
2022/04/07 02:29:40;;;;;;;1.53;0.67;;;;;;;10.79;77.29;94029.31;4366081;32;20199;-53
2022/04/07 02:32:06;;;;;;;0.70;0.70;;;;;;;10.85;77.09;94028.00;4365127;32;20272;-53
2022/04/07 02:34:32;;;;;;;0.60;0.60;;;;;;;10.92;78.64;94026.37;4379964;32;20297;-56
2022/04/07 02:36:57;;;;;;;0.90;0.73;;;;;;;10.84;79.50;94029.88;4363400;32;20323;-55
2022/04/07 02:39:22;;;;;;;0.80;0.80;;;;;;;10.81;80.39;94027.88;4372510;32;20197;-55
2022/04/07 02:41:48;;;;;;;0.80;0.80;;;;;;;10.67;81.28;94038.78;4357255;32;20207;-56
2022/04/07 02:44:13;;;;;;;0.80;0.80;;;;;;;10.74;81.22;94029.53;4373761;32;20203;-55
2022/04/07 02:46:38;;;;;;;1.00;0.90;;;;;;;10.72;81.48;94032.50;4370095;32;20197;-57
2022/04/07 02:49:04;;;;;;;0.70;0.70;;;;;;;10.86;80.95;94029.56;4370119;32;20348;-56
2022/04/07 02:51:31;;;;;;;0.80;0.80;;;;;;;10.89;80.37;94032.34;4367136;32;20205;-55
2022/04/07 02:53:58;;;;;;;0.80;0.77;;;;;;;10.90;80.38;94031.25;4354169;32;20300;-56
2022/04/07 02:56:27;;;;;;;0.70;0.70;;;;;;;10.86;80.71;94026.91;4354815;32;20360;-54
2022/04/07 02:58:54;;;;;;;0.70;0.70;;;;;;;10.84;80.50;94029.88;4358654;32;20189;-54
2022/04/07 03:01:19;;;;;;;0.67;0.67;;;;;;;10.81;80.29;94025.22;4356033;32;20285;-56
2022/04/07 03:03:45;;;;;;;1.00;0.80;;;;;;;10.78;80.29;94027.78;4353185;32;20230;-59
2022/04/07 03:06:10;;;;;;;0.80;0.80;;;;;;;10.79;80.01;94019.50;4350962;32;20200;-57
2022/04/07 03:08:36;;;;;;;3.40;0.70;;;;;;;10.76;79.70;94020.13;4380540;32;20242;-57
2022/04/07 03:11:05;;;;;;;0.80;0.80;;;;;;;10.74;79.93;94011.72;4361548;32;20197;-56
2022/04/07 03:13:31;;;;;;;1.00;0.60;;;;;;;10.81;79.40;94011.97;4354849;32;20182;-57
2022/04/07 03:15:57;;;;;;;1.43;0.90;;;;;;;10.78;79.26;94023.25;4354546;32;20299;-57
2022/04/07 03:18:22;;;;;;;1.47;1.00;;;;;;;10.78;79.05;94012.63;4367578;32;20207;-55
2022/04/07 03:20:47;;;;;;;1.07;0.70;;;;;;;10.75;78.97;94015.94;4358004;32;20243;-56
2022/04/07 03:23:13;;;;;;;1.97;0.80;;;;;;;10.74;78.67;94016.25;4382886;32;20193;-54
2022/04/07 03:25:38;;;;;;;0.83;0.80;;;;;;;10.54;79.34;94017.84;4361210;32;20197;-56
2022/04/07 03:28:04;;;;;;;1.50;0.60;;;;;;;10.61;78.65;94012.75;4370893;32;21339;-57
2022/04/07 03:30:30;;;;;;;0.50;0.43;;;;;;;10.50;78.29;94001.03;4347603;32;20193;-57
2022/04/07 03:32:55;;;;;;;0.50;0.50;;;;;;;10.53;78.18;94008.31;4364411;32;20297;-55
2022/04/07 03:35:21;;;;;;;0.70;0.70;;;;;;;10.56;78.05;94002.37;4362084;32;20193;-56
2022/04/07 03:37:46;;;;;;;0.50;0.50;;;;;;;10.41;78.07;93998.44;4361016;32;20196;-56
2022/04/07 03:40:12;;;;;;;0.70;0.70;;;;;;;10.33;78.66;94000.06;4363827;32;20246;-55
2022/04/07 03:42:37;;;;;;;1.43;0.50;;;;;;;10.41;78.21;94014.34;4362717;32;20246;-56
2022/04/07 03:45:03;;;;;;;0.30;0.30;;;;;;;10.37;77.52;94007.38;4362192;32;20209;-56
2022/04/07 03:47:30;;;;;;;0.87;0.50;;;;;;;10.39;78.14;94000.66;4364935;32;20226;-54
2022/04/07 03:49:55;;;;;;;0.60;0.40;;;;;;;10.25;78.16;93998.25;4364274;32;20261;-56
2022/04/07 03:52:21;;;;;;;0.70;0.50;;;;;;;10.28;78.00;94004.78;4362497;32;20281;-58
2022/04/07 03:54:46;;;;;;;1.20;0.57;;;;;;;10.29;78.10;93996.50;4361936;32;20211;-56
2022/04/07 03:57:11;;;;;;;1.10;0.50;;;;;;;10.26;78.21;93989.19;4343142;32;20211;-59
2022/04/07 03:59:38;;;;;;;0.30;0.30;;;;;;;10.31;77.37;93994.31;4350340;32;20181;-53
2022/04/07 04:02:06;;;;;;;0.40;0.40;;;;;;;10.18;77.59;93987.37;4338418;32;20177;-57
2022/04/07 04:04:32;;;;;;;0.50;0.50;;;;;;;10.19;77.74;93988.94;4367559;32;20293;-56
2022/04/07 04:06:58;;;;;;;0.70;0.70;;;;;;;10.27;77.71;93988.09;4360546;32;20317;-56
2022/04/07 04:09:23;;;;;;;0.67;0.63;;;;;;;10.33;77.25;93994.75;4362429;32;20307;-56
2022/04/07 04:11:49;;;;;;;0.40;0.37;;;;;;;10.11;78.24;94010.19;4351903;32;20189;-53
2022/04/07 04:14:14;;;;;;;0.77;0.63;;;;;;;10.17;78.65;94000.94;4355047;32;20181;-55
2022/04/07 04:16:41;;;;;;;0.90;0.90;;;;;;;9.99;78.88;94016.16;4355218;32;20193;-56
2022/04/07 04:19:06;;;;;;;0.50;0.50;;;;;;;10.15;78.56;94005.78;4360234;32;20207;-57
2022/04/07 04:21:32;;;;;;;0.30;0.30;;;;;;;10.02;79.07;94012.88;4359865;32;20277;-56
2022/04/07 04:23:57;;;;;;;3.27;0.60;;;;;;;10.07;78.28;93999.44;4369082;32;20224;-55
2022/04/07 04:26:22;;;;;;;0.40;0.40;;;;;;;9.97;78.26;94015.72;4348256;32;20197;-57
2022/04/07 04:28:48;;;;;;;1.37;0.40;;;;;;;9.94;78.54;94021.66;4360002;32;20185;-56
2022/04/07 04:31:13;;;;;;;0.40;0.40;;;;;;;9.89;78.43;94008.59;4361319;32;20252;-56
2022/04/07 04:33:38;;;;;;;2.90;0.70;;;;;;;9.94;78.33;94001.25;4358702;32;20244;-56
2022/04/07 04:36:07;;;;;;;0.37;0.37;;;;;;;10.06;77.36;94008.47;4359957;32;20420;-54
2022/04/07 04:38:33;;;;;;;0.50;0.50;;;;;;;10.03;77.20;94003.81;4359582;32;20181;-55
2022/04/07 04:40:58;;;;;;;0.50;0.50;;;;;;;9.92;77.49;94018.56;4359899;32;20272;-56
2022/04/07 04:43:23;;;;;;;0.50;0.50;;;;;;;10.04;77.56;94010.69;4348902;32;20205;-56
2022/04/07 04:45:49;;;;;;;0.43;0.43;;;;;;;9.93;76.86;94023.53;4347617;32;20216;-56
2022/04/07 04:48:14;;;;;;;0.37;0.37;;;;;;;9.90;76.61;94013.56;4360890;32;20203;-56
2022/04/07 04:50:39;;;;;;;1.23;0.60;;;;;;;9.87;77.00;94018.72;4350008;32;20188;-54
2022/04/07 04:53:05;;;;;;;0.50;0.50;;;;;;;9.95;75.96;94004.66;4346387;32;20303;-56
2022/04/07 04:55:30;;;;;;;1.10;0.40;;;;;;;9.94;76.24;94005.78;4353932;32;20197;-54
2022/04/07 04:57:56;;;;;;;0.53;0.50;;;;;;;9.81;76.45;94006.75;4349046;32;20200;-57
2022/04/07 05:00:21;;;;;;;0.60;0.50;;;;;;;9.81;76.13;94010.19;4350886;32;20264;-55
2022/04/07 05:02:46;;;;;;;0.50;0.50;;;;;;;9.89;75.65;94005.94;4347844;32;20193;-55
2022/04/07 05:05:12;;;;;;;0.40;0.40;;;;;;;9.92;75.45;93994.72;4356663;32;20201;-56
2022/04/07 05:07:38;;;;;;;1.10;0.47;;;;;;;9.80;75.59;93997.25;4351105;32;20189;-58
2022/04/07 05:10:04;;;;;;;0.70;0.40;;;;;;;9.67;75.71;93995.63;4359524;32;20214;-57
2022/04/07 05:12:29;;;;;;;2.57;0.43;;;;;;;9.73;75.91;94003.09;4352460;32;20193;-57
2022/04/07 05:14:55;;;;;;;0.30;0.30;;;;;;;9.75;75.31;93997.47;4355407;32;20281;-54
2022/04/07 05:17:20;;;;;;;0.67;0.40;;;;;;;9.73;74.79;93997.00;4359455;32;20196;-58
2022/04/07 05:19:45;;;;;;;0.63;0.40;;;;;;;9.72;74.98;94001.53;4346567;32;20191;-60
2022/04/07 05:22:11;;;;;;;1.50;0.50;;;;;;;9.86;74.57;94001.28;4349182;32;20221;-60
2022/04/07 05:24:37;;;;;;;0.80;0.53;;;;;;;9.87;74.77;94003.63;4337381;32;20212;-60
2022/04/07 05:27:03;;;;;;;1.13;1.03;;;;;;;9.79;75.08;93999.12;4351049;32;20217;-57
2022/04/07 05:29:28;;;;;;;1.90;0.60;;;;;;;9.72;74.80;94009.47;4349007;32;20232;-57
2022/04/07 05:31:53;;;;;;;0.60;0.60;;;;;;;9.77;75.08;93995.28;4355667;32;20193;-59
2022/04/07 05:34:18;;;;;;;0.50;0.50;;;;;;;9.77;74.96;94005.88;4359192;32;20207;-58
2022/04/07 05:36:44;;;;;;;0.40;0.40;;;;;;;9.80;75.15;93994.63;4348190;32;20184;-59
2022/04/07 05:39:09;;;;;;;0.67;0.50;;;;;;;9.88;75.12;93991.94;4359988;32;20197;-59
2022/04/07 05:41:35;;;;;;;2.60;0.87;;;;;;;9.82;75.52;93989.78;4340584;32;20268;-58
2022/04/07 05:44:00;;;;;;;1.50;0.53;;;;;;;9.76;75.45;93999.81;4354078;32;20217;-59
2022/04/07 05:46:25;;;;;;;1.80;0.53;;;;;;;9.83;75.50;93997.41;4354669;32;20188;-58
2022/04/07 05:48:50;;;;;;;1.43;0.70;;;;;;;9.78;75.69;93991.50;4356270;32;20275;-59
2022/04/07 05:51:16;;;;;;;0.57;0.57;;;;;;;9.77;76.10;93992.63;4345807;32;20211;-60
2022/04/07 05:53:41;;;;;;;1.90;0.70;;;;;;;9.90;75.71;93978.38;4358153;32;20211;-59
2022/04/07 05:56:06;;;;;;;1.33;0.70;;;;;;;9.85;75.88;93974.03;4359332;32;20203;-59
2022/04/07 05:58:32;;;;;;;0.60;0.53;;;;;;;9.90;75.76;93973.84;4346319;32;20189;-59
2022/04/07 06:00:57;;;;;;;0.80;0.80;;;;;;;9.84;75.98;93967.19;4346019;32;20228;-59
2022/04/07 06:03:22;;;;;;;0.70;0.70;;;;;;;9.85;76.55;93966.06;4362280;32;20242;-59
2022/04/07 06:05:52;;;;;;;3.40;0.60;;;;;;;9.97;75.98;93957.44;4359059;32;20225;-60
2022/04/07 06:08:19;;;;;;;0.90;0.60;;;;;;;10.00;75.85;93968.16;4360962;32;20240;-56
2022/04/07 06:10:44;;;;;;;5.27;1.00;;;;;;;9.92;75.81;93960.28;4362318;32;20289;-57
2022/04/07 06:13:11;;;;;;;0.67;0.67;;;;;;;9.91;76.35;93956.06;4361642;32;20320;-59
2022/04/07 06:15:37;;;;;;;3.03;0.70;;;;;;;10.00;75.50;93943.53;4356035;32;20192;-59
2022/04/07 06:18:02;;;;;;;5.10;0.87;;;;;;;10.11;75.67;93951.88;4361432;32;20306;-59
2022/04/07 06:20:28;;;;;;;0.80;0.70;;;;;;;10.05;75.29;93959.25;4339682;32;20217;-60
2022/04/07 06:22:53;;;;;;;1.57;0.50;;;;;;;10.10;75.19;93960.94;4342067;32;20204;-60
2022/04/07 06:25:18;;;;;;;2.57;0.70;;;;;;;10.20;74.75;93955.25;4346671;32;20189;-59
2022/04/07 06:27:46;;;;;;;28.10;3.43;;;;;;;10.23;74.18;93955.38;4355255;32;20185;-45
2022/04/07 06:30:17;;;;;;;5.53;1.93;;;;;;;10.68;81.79;93962.63;4363703;32;20181;-42
2022/04/07 06:32:43;;;;;;;1.53;0.90;;;;;;;11.27;75.82;93951.69;4362119;32;20282;-43
2022/04/07 06:35:11;;;;;;;15.33;1.77;;;;;;;11.74;72.40;93953.91;4366563;32;20194;-42
2022/04/07 06:37:56;;;;;;;5.33;1.07;;;;;;;12.29;76.80;93948.72;4360696;32;20295;-43
2022/04/07 06:40:26;;;;;;;3.50;1.17;;;;;;;12.56;71.41;93941.09;4362154;32;20181;-43
2022/04/07 06:42:53;;;;;;;5.13;1.00;;;;;;;12.83;71.74;93937.62;4348650;32;20239;-42
2022/04/07 06:45:19;;;;;;;2.13;0.53;;;;;;;12.89;68.18;93938.91;4358913;32;20284;-42
2022/04/07 06:47:44;;;;;;;3.70;0.60;;;;;;;12.94;66.81;93938.66;4338315;32;20190;-43
2022/04/07 06:50:11;;;;;;;0.30;0.30;;;;;;;13.14;65.30;93938.78;4356402;32;20240;-43
2022/04/07 06:52:37;;;;;;;1.73;0.40;;;;;;;13.43;64.87;93943.72;4338326;32;20211;-45
2022/04/07 06:55:03;;;;;;;1.70;0.50;;;;;;;13.22;64.12;93928.00;4358819;32;20193;-42
2022/04/07 06:57:29;;;;;;;1.83;0.80;;;;;;;13.27;63.20;93924.31;4351727;32;20241;-43
2022/04/07 06:59:54;;;;;;;2.37;1.20;;;;;;;13.51;66.63;93915.34;4364697;32;20215;-43
2022/04/07 07:02:19;;;;;;;0.60;0.60;;;;;;;13.44;62.82;93920.50;4361660;32;20208;-45
2022/04/07 07:04:45;;;;;;;3.83;0.40;;;;;;;13.53;62.84;93915.75;4359193;32;20225;-44
2022/04/07 07:07:11;;;;;;;1.03;0.50;;;;;;;13.71;62.50;93903.63;4361246;32;20189;-42
2022/04/07 07:09:37;;;;;;;2.43;0.60;;;;;;;13.79;61.56;93907.97;4357871;32;20289;-43
2022/04/07 07:12:03;;;;;;;2.63;0.43;;;;;;;13.83;61.35;93911.50;4338275;32;20240;-44
2022/04/07 07:14:28;;;;;;;1.77;0.73;;;;;;;13.85;59.24;93882.59;4364998;32;20240;-41
2022/04/07 07:16:53;;;;;;;2.20;0.40;;;;;;;13.98;60.94;93894.66;4350814;32;20181;-43
2022/04/07 07:19:20;;;;;;;0.60;0.50;;;;;;;14.09;59.48;93897.56;4365333;32;20203;-44
2022/04/07 07:21:45;;;;;;;3.33;0.20;;;;;;;14.11;60.19;93892.66;4359607;32;20186;-45
2022/04/07 07:24:11;;;;;;;2.80;0.90;;;;;;;14.09;57.17;93889.56;4357818;32;20210;-41
2022/04/07 07:26:36;;;;;;;8.97;1.70;;;;;;;14.28;60.62;93892.25;4343986;32;20181;-43
2022/04/07 07:29:02;;;;;;;5.37;1.07;;;;;;;14.93;67.05;93889.66;4348135;32;20223;-44
2022/04/07 07:31:27;;;;;;;5.17;0.70;;;;;;;14.85;57.86;93885.31;4360240;32;20198;-41
2022/04/07 07:33:52;;;;;;;5.20;0.40;;;;;;;14.90;57.97;93889.59;4358931;32;20196;-41
2022/04/07 07:36:18;;;;;;;0.93;0.40;;;;;;;14.31;56.41;93886.22;4331681;32;20225;-46
2022/04/07 07:38:43;;;;;;;4.80;0.40;;;;;;;14.38;56.38;93880.22;4348917;32;20248;-44
2022/04/07 07:41:08;;;;;;;4.10;0.40;;;;;;;14.36;53.84;93891.25;4339485;32;20280;-42
2022/04/07 07:43:34;;;;;;;2.80;0.30;;;;;;;14.53;53.27;93902.66;4330921;32;20220;-42
2022/04/07 07:45:59;;;;;;;2.20;0.50;;;;;;;14.79;53.39;93884.81;4351731;32;20197;-40
2022/04/07 07:48:28;;;;;;;4.20;0.23;;;;;;;14.86;54.55;93889.53;4344716;32;20189;-42
2022/04/07 07:50:55;;;;;;;2.63;0.50;;;;;;;14.65;51.37;93886.47;4346393;32;20200;-40
2022/04/07 07:53:20;;;;;;;0.20;0.20;;;;;;;14.70;51.65;93864.84;4346371;32;20212;-43
2022/04/07 07:55:46;;;;;;;0.40;0.27;;;;;;;14.78;51.84;93867.25;4355175;32;20212;-47
2022/04/07 07:58:12;;;;;;;0.77;0.43;;;;;;;15.21;51.03;93861.84;4343295;32;20197;-44
2022/04/07 08:00:38;;;;;;;0.70;0.20;;;;;;;15.13;50.40;93858.31;4354056;32;20207;-42
2022/04/07 08:03:03;;;;;;;3.80;0.43;;;;;;;14.68;48.85;93851.84;4346100;32;20200;-41
2022/04/07 08:05:33;;;;;;;1.07;0.30;;;;;;;15.21;50.01;93857.28;4343808;32;20233;-41
2022/04/07 08:08:00;;;;;;;0.17;0.17;;;;;;;15.22;48.27;93858.81;4324416;32;20240;-40
2022/04/07 08:10:27;;;;;;;2.17;0.20;;;;;;;15.13;49.11;93845.72;4314897;33;20292;-42
2022/04/07 08:12:53;;;;;;;2.50;0.40;;;;;;;15.44;48.49;93838.53;4321449;33;20205;-43
2022/04/07 08:15:20;;;;;;;1.20;0.20;;;;;;;15.48;48.82;93842.03;4305067;33;20272;-42
2022/04/07 08:17:46;;;;;;;4.40;0.30;;;;;;;15.43;48.50;93847.69;4308387;33;20205;-61
2022/04/07 08:20:13;;;;;;;1.90;0.50;;;;;;;14.73;48.55;93837.44;4316238;32;20189;-59
2022/04/07 08:22:40;;;;;;;3.70;0.47;;;;;;;14.14;50.31;93843.16;4327807;33;20247;-59
2022/04/07 08:25:08;;;;;;;7.63;2.10;;;;;;;13.58;51.69;93830.22;4323004;32;20190;-59
2022/04/07 08:27:35;;;;;;;1.43;0.30;;;;;;;13.50;51.91;93836.53;4333517;32;20204;-58
2022/04/07 08:30:02;;;;;;;1.33;0.30;;;;;;;13.40;51.61;93845.84;4314279;32;20211;-59
2022/04/07 08:32:31;;;;;;;2.43;0.60;;;;;;;13.14;52.74;93835.69;4305120;33;20268;-58
2022/04/07 08:34:59;;;;;;;3.87;0.50;;;;;;;13.15;52.25;93825.81;4301080;32;20210;-59
2022/04/07 08:37:25;;;;;;;0.93;0.13;;;;;;;12.99;52.87;93818.63;4305506;32;20199;-59
2022/04/07 08:39:54;;;;;;;0.20;0.20;;;;;;;13.04;52.61;93813.06;4320948;32;20237;-59
2022/04/07 08:42:32;;;;;;;3.90;0.40;;;;;;;13.12;53.12;93797.22;4313190;32;20196;-59
2022/04/07 08:45:02;;;;;;;1.50;0.37;;;;;;;13.23;52.08;93804.37;4314071;32;20231;-60
2022/04/07 08:47:31;;;;;;;3.33;0.53;;;;;;;13.27;52.36;93789.25;4324259;32;20282;-60
2022/04/07 08:50:01;;;;;;;0.53;0.30;;;;;;;13.21;52.25;93803.16;4329264;32;20208;-59
2022/04/07 08:52:29;;;;;;;2.23;0.60;;;;;;;13.39;51.54;93805.09;4305120;33;20220;-59
2022/04/07 08:54:55;;;;;;;1.43;0.30;;;;;;;13.50;51.22;93804.56;4327122;32;20245;-59
2022/04/07 08:57:22;;;;;;;3.77;0.30;;;;;;;13.61;51.44;93797.56;4324169;32;20212;-59
2022/04/07 08:59:47;;;;;;;2.67;0.60;;;;;;;13.66;50.52;93800.72;4343955;32;20196;-60
2022/04/07 09:02:13;;;;;;;0.27;0.27;;;;;;;13.86;50.73;93779.41;4312457;32;20235;-59
2022/04/07 09:04:41;;;;;;;5.53;0.60;;;;;;;13.79;49.83;93782.69;4335806;32;20279;-60
2022/04/07 09:07:13;;;;;;;2.67;0.50;;;;;;;13.93;49.17;93777.62;4323267;32;20273;-59
2022/04/07 09:09:38;;;;;;;2.50;0.47;;;;;;;13.89;48.80;93776.03;4341751;32;20184;-59
2022/04/07 09:12:06;;;;;;;2.07;1.07;;;;;;;13.78;49.23;93762.50;4357945;32;20197;-59
2022/04/07 09:14:36;;;;;;;0.47;0.47;;;;;;;13.99;49.49;93772.78;4342415;32;20189;-59
2022/04/07 09:17:02;;;;;;;0.50;0.30;;;;;;;14.20;49.29;93767.09;4342814;32;20192;-59
2022/04/07 09:19:31;;;;;;;1.63;0.50;;;;;;;14.29;48.49;93772.97;4341591;32;20232;-59
2022/04/07 09:22:07;;;;;;;0.40;0.30;;;;;;;14.37;49.36;93770.06;4341226;32;20228;-60
2022/04/07 09:24:39;;;;;;;3.77;0.60;;;;;;;14.47;48.43;93776.75;4327816;32;20201;-58
2022/04/07 09:27:11;;;;;;;1.37;0.50;;;;;;;14.34;48.20;93757.44;4319060;32;20188;-61
2022/04/07 09:29:41;;;;;;;0.90;0.80;;;;;;;14.60;47.92;93754.09;4335691;32;20189;-59
2022/04/07 09:32:53;;;;;;;0.50;0.50;;;;;;;14.60;47.29;93756.75;4322054;32;20363;-59
2022/04/07 09:35:19;;;;;;;9.00;0.97;;;;;;;14.77;48.15;93750.16;4356998;32;20189;-58
2022/04/07 09:37:46;;;;;;;3.63;1.73;;;;;;;14.65;46.36;93756.47;4357498;32;20219;-56
2022/04/07 09:40:18;;;;;;;3.83;1.30;;;;;;;14.57;46.97;93743.34;4353095;32;20207;-57
2022/04/07 09:42:59;;;;;;;1.92;0.80;;;;;;;14.63;46.94;93742.69;4325141;32;20035;-52
2022/04/07 09:45:28;;;;;;;0.67;0.67;;;;;;;14.84;47.30;93744.16;4310358;32;20245;-59
2022/04/07 09:47:55;;;;;;;1.43;0.40;;;;;;;14.84;47.52;93734.25;4328270;32;20220;-58
2022/04/07 09:50:33;;;;;;;4.23;2.33;;;;;;;14.83;46.58;93724.69;4338749;32;20185;-59
2022/04/07 09:53:07;;;;;;;3.57;1.63;;;;;;;14.85;47.22;93738.47;4343014;32;20243;-59
2022/04/07 09:55:44;;;;;;;1.90;0.43;;;;;;;14.75;46.38;93720.41;4360161;32;20255;-59
2022/04/07 09:58:14;;;;;;;6.13;1.20;;;;;;;14.87;47.72;93698.06;4351554;32;20334;-59
2022/04/07 10:00:40;;;;;;;5.07;1.90;;;;;;;14.95;49.53;93700.47;4348641;32;20211;-59
2022/04/07 10:03:06;;;;;;;4.00;1.40;;;;;;;15.19;47.53;93693.13;4322942;33;20225;-54
2022/04/07 10:05:34;;;;;;;3.17;2.40;;;;;;;15.13;45.46;93704.16;4322604;32;20220;-56
2022/04/07 10:08:02;;;;;;;5.07;2.60;;;;;;;15.21;46.25;93680.19;4340163;32;20259;-57
2022/04/07 10:10:29;;;;;;;2.50;2.30;;;;;;;15.15;46.00;93681.66;4307775;32;20211;-59
2022/04/07 10:12:59;;;;;;;2.03;1.03;;;;;;;15.19;46.00;93682.44;4323444;32;20185;-60
2022/04/07 10:15:29;;;;;;;3.00;2.70;;;;;;;15.09;47.57;93671.28;4345389;32;20181;-60
2022/04/07 10:17:59;;;;;;;3.03;1.73;;;;;;;15.15;45.50;93673.63;4307215;32;20365;-58
2022/04/07 10:20:33;;;;;;;1.63;1.00;;;;;;;15.04;45.55;93666.25;4341389;32;20185;-59
2022/04/07 10:23:25;;;;;;;2.63;2.40;;;;;;;15.15;46.54;93654.94;4362947;32;20246;-59
2022/04/07 10:25:54;;;;;;;2.83;1.80;;;;;;;15.13;47.12;93672.09;4338941;32;20235;-59
2022/04/07 10:28:20;;;;;;;2.07;1.40;;;;;;;15.19;46.52;93640.47;4350294;32;20250;-59
2022/04/07 10:30:49;;;;;;;1.10;0.87;;;;;;;15.20;47.89;93636.66;4306119;32;20185;-59
2022/04/07 10:33:48;;;;;;;4.07;1.07;;;;;;;15.35;46.80;93632.28;4308308;32;20207;-59
2022/04/07 10:36:21;;;;;;;2.97;1.70;;;;;;;15.40;45.49;93642.63;4353082;32;20239;-59
2022/04/07 10:38:52;;;;;;;2.47;1.27;;;;;;;15.47;46.13;93637.37;4316348;33;20247;-59
2022/04/07 10:41:38;;;;;;;1.40;1.30;;;;;;;15.50;46.83;93617.16;4312993;32;20197;-59
2022/04/07 10:44:18;;;;;;;3.50;1.90;;;;;;;15.64;44.94;93599.37;4347641;32;20193;-59
2022/04/07 10:47:11;;;;;;;1.77;0.73;;;;;;;15.72;45.53;93598.34;4328265;32;20197;-60
2022/04/07 10:49:46;;;;;;;0.83;0.70;;;;;;;15.74;44.76;93600.66;4306428;32;20256;-59
2022/04/07 10:52:25;;;;;;;1.83;1.30;;;;;;;15.82;45.52;93591.53;4292227;33;20228;-59
2022/04/07 10:55:11;;;;;;;1.27;1.13;;;;;;;15.85;44.34;93584.69;4316772;32;20212;-59
2022/04/07 10:58:13;;;;;;;2.33;0.73;;;;;;;15.78;44.92;93572.81;4311737;32;20197;-59
2022/04/07 11:00:40;;;;;;;2.80;1.13;;;;;;;15.82;44.04;93580.84;4298786;32;20207;-59
2022/04/07 11:03:14;;;;;;;2.27;0.97;;;;;;;15.80;46.16;93575.84;4311432;32;20254;-60
2022/04/07 11:06:00;;;;;;;1.47;0.50;;;;;;;15.73;45.57;93567.78;4314566;32;20205;-59
2022/04/07 11:08:26;;;;;;;1.63;0.90;;;;;;;15.79;43.78;93565.56;4338399;32;20208;-59
2022/04/07 11:10:55;;;;;;;1.23;0.47;;;;;;;15.84;44.82;93561.75;4257195;32;20212;-59
2022/04/07 11:13:40;;;;;;;1.60;0.80;;;;;;;15.86;43.71;93570.19;4294973;33;20221;-58
2022/04/07 11:16:28;;;;;;;1.03;0.50;;;;;;;15.69;44.56;93553.63;4300206;32;20197;-59
2022/04/07 11:19:44;;;;;;;5.67;0.70;;;;;;;15.62;44.24;93550.09;4306922;33;20190;-60
2022/04/07 11:22:10;;;;;;;4.47;0.80;;;;;;;15.65;43.95;93539.44;4242528;33;20203;-61
2022/04/07 11:24:43;;;;;;;2.33;0.80;;;;;;;15.50;43.99;93542.34;4320845;32;20185;-61
2022/04/07 11:27:32;;;;;;;9.47;3.77;;;;;;;15.59;45.48;93526.81;4303313;32;20301;-44
2022/04/07 11:30:09;;;;;;;4.07;2.33;;;;;;;17.29;49.04;93537.72;4313815;33;20208;-45
2022/04/07 11:32:38;;;;;;;5.97;1.50;;;;;;;18.02;45.63;93535.53;4344378;32;20212;-45
2022/04/07 11:35:24;;;;;;;3.40;0.87;;;;;;;18.10;44.39;93512.91;4342021;32;20217;-46
2022/04/07 11:37:52;;;;;;;3.90;0.70;;;;;;;17.82;41.29;93543.22;4324630;32;20188;-43